Terminal Aerodrome Forecast
Issued by NWS

Home | Current Version | Previous Version | Text Only | Print | Product List | Glossary On
Versions: 1 2 3 4 5 6 7 8 9 10 11 12
216
FTUS44 KSJT 231720
TAFBBD
TAF
KBBD 231720Z 2318/2418 17007KT P6SM SCT100 BKN250
     FM231900 14007KT P6SM VCTS SCT080CB BKN250
     FM240100 14005KT P6SM SCT100 BKN250
      AMD NOT SKED=

USA.gov is the U.S. government's official web portal to all federal, state and local government web resources and services.